HISTORICAL SENSOR DATA

Sensor Data Report

DB LIVE
CURRENT TIME--:--:--
DEVICE NETWORK Gateway Status
13 ESP · realtime ~1s · history 60s
Weather WS-MOD-01
ONLINE
Actuator ACT-MOD-01
OFFLINE
Mainboard L3 MB-L3-01
ONLINE
Mainboard L5 MB-L5-01
ONLINE
Remote AC AC-REMOTE-01
ONLINE
PZEM L3-01 PWR-L3-01
OFFLINE
PZEM L3-02 PWR-L3-02
OFFLINE
PZEM L3-03 PWR-L3-03
OFFLINE
PZEM L3-04 PWR-L3-04
OFFLINE
PZEM L5-01 PWR-L5-01
ONLINE
PZEM L5-02 PWR-L5-02
ONLINE
PZEM L5-03 PWR-L5-03
OFFLINE
PZEM L5-04 PWR-L5-04
OFFLINE
REPORT FILTER

Periode & Sensor

DATABASE HISTORY
RESET
QUICK RANGE Hari ini 7 hari 30 hari
PERIODE02 Sep 2026sampai 02 Sep 2026
TOTAL DATA40,278sensor readings
MINIMUM-0.50sesuai filter
AVERAGE56.78sesuai filter
MAXIMUM998.00sesuai filter
REPORT RESULT

Data Sensor

02/09/2026 — 02/09/2026 EXPORT CSV
NOTANGGALWAKTUDEVICECHANNELSENSORVALUEUNIT
13201 02/09/2026 14:53:56 MB-L3-01Mainboard Lantai 3 L3-BGT-01 Black Globe Temperature 1 29.90 °C
13202 02/09/2026 14:53:56 MB-L5-01Mainboard Lantai 5 L5-RAD-02 Radiation 2 2.00 W/m²
13203 02/09/2026 14:53:56 MB-L3-01Mainboard Lantai 3 L3-LUX-01 Illuminance / LUX 1 24.70 lux
13204 02/09/2026 14:53:56 MB-L3-01Mainboard Lantai 3 L3-RAD-02 Radiation 2 2.00 W/m²
13205 02/09/2026 14:53:54 MB-L3-01Mainboard Lantai 3 L3-AI-05 Analog Input 5 3.12 V
13206 02/09/2026 14:53:54 MB-L3-01Mainboard Lantai 3 L3-SHT-03-T SHT20 3 Temperature 31.80 °C
13207 02/09/2026 14:53:54 MB-L5-01Mainboard Lantai 5 L5-RAD-01 Radiation 1 2.00 W/m²
13208 02/09/2026 14:53:54 MB-L5-01Mainboard Lantai 5 L5-AI-03 Analog Input 3 3.05 V
13209 02/09/2026 14:53:54 MB-L3-01Mainboard Lantai 3 L3-SHT-02-T SHT20 2 Temperature 32.10 °C
13210 02/09/2026 14:53:54 MB-L5-01Mainboard Lantai 5 L5-AI-02 Analog Input 2 3.05 V
13211 02/09/2026 14:53:54 MB-L3-01Mainboard Lantai 3 L3-BGT-03 Black Globe Temperature 3 29.50 °C
13212 02/09/2026 14:53:54 MB-L5-01Mainboard Lantai 5 L5-AI-01 Analog Input 1 3.05 V
13213 02/09/2026 14:53:54 MB-L3-01Mainboard Lantai 3 L3-ST-02 Surface Temperature 2 30.30 °C
13214 02/09/2026 14:53:54 MB-L3-01Mainboard Lantai 3 L3-AI-06 Analog Input 6 3.12 V
13215 02/09/2026 14:53:54 MB-L3-01Mainboard Lantai 3 L3-LUX-06 Illuminance / LUX 6 33.90 lux
13216 02/09/2026 14:53:54 MB-L3-01Mainboard Lantai 3 L3-AI-01 Analog Input 1 3.12 V
13217 02/09/2026 14:53:54 MB-L5-01Mainboard Lantai 5 L5-BGT-03 Black Globe Temperature 3 29.80 °C
13218 02/09/2026 14:53:54 MB-L3-01Mainboard Lantai 3 L3-HFT-01 Heat Flow Temperature 1 29.70 °C
13219 02/09/2026 14:53:54 MB-L5-01Mainboard Lantai 5 L5-LUX-03 Illuminance / LUX 3 152.60 lux
13220 02/09/2026 14:53:54 MB-L5-01Mainboard Lantai 5 L5-BGT-02 Black Globe Temperature 2 29.70 °C
13221 02/09/2026 14:53:54 MB-L5-01Mainboard Lantai 5 L5-BGT-01 Black Globe Temperature 1 29.80 °C
13222 02/09/2026 14:53:54 MB-L3-01Mainboard Lantai 3 L3-LUX-05 Illuminance / LUX 5 45.40 lux
13223 02/09/2026 14:53:54 MB-L3-01Mainboard Lantai 3 L3-AI-02 Analog Input 2 3.12 V
13224 02/09/2026 14:53:54 MB-L3-01Mainboard Lantai 3 L3-LUX-04 Illuminance / LUX 4 86.70 lux
13225 02/09/2026 14:53:54 MB-L5-01Mainboard Lantai 5 L5-HFT-02 Heat Flow Temperature 2 30.20 °C
13226 02/09/2026 14:53:54 MB-L5-01Mainboard Lantai 5 L5-SHT-01-RH SHT20 1 Humidity 48.30 %RH
13227 02/09/2026 14:53:54 MB-L3-01Mainboard Lantai 3 L3-HFT-02 Heat Flow Temperature 2 29.30 °C
13228 02/09/2026 14:53:54 MB-L3-01Mainboard Lantai 3 L3-SHT-01-T SHT20 1 Temperature 32.10 °C
13229 02/09/2026 14:53:54 MB-L5-01Mainboard Lantai 5 L5-HFT-01 Heat Flow Temperature 1 30.20 °C
13230 02/09/2026 14:53:54 MB-L5-01Mainboard Lantai 5 L5-LUX-01 Illuminance / LUX 1 211.60 lux
13231 02/09/2026 14:53:54 MB-L5-01Mainboard Lantai 5 L5-LUX-06 Illuminance / LUX 6 204.30 lux
13232 02/09/2026 14:53:54 MB-L5-01Mainboard Lantai 5 L5-ST-02 Surface Temperature 2 30.40 °C
13233 02/09/2026 14:53:54 MB-L3-01Mainboard Lantai 3 L3-LUX-02 Illuminance / LUX 2 46.20 lux
13234 02/09/2026 14:53:54 MB-L3-01Mainboard Lantai 3 L3-SHT-01-RH SHT20 1 Humidity 48.20 %RH
13235 02/09/2026 14:53:54 MB-L3-01Mainboard Lantai 3 L3-AI-03 Analog Input 3 3.12 V
13236 02/09/2026 14:53:54 MB-L5-01Mainboard Lantai 5 L5-LUX-02 Illuminance / LUX 2 209.40 lux
13237 02/09/2026 14:53:54 MB-L5-01Mainboard Lantai 5 L5-ST-01 Surface Temperature 1 30.20 °C
13238 02/09/2026 14:53:54 MB-L3-01Mainboard Lantai 3 L3-SHT-02-RH SHT20 2 Humidity 48.20 %RH
13239 02/09/2026 14:53:54 MB-L3-01Mainboard Lantai 3 L3-BGT-01 Black Globe Temperature 1 29.90 °C
13240 02/09/2026 14:53:54 MB-L5-01Mainboard Lantai 5 L5-RAD-02 Radiation 2 2.00 W/m²
13241 02/09/2026 14:53:54 MB-L3-01Mainboard Lantai 3 L3-LUX-01 Illuminance / LUX 1 28.40 lux
13242 02/09/2026 14:53:54 MB-L3-01Mainboard Lantai 3 L3-RAD-02 Radiation 2 2.00 W/m²
13243 02/09/2026 14:53:54 MB-L5-01Mainboard Lantai 5 L5-AI-06 Analog Input 6 3.05 V
13244 02/09/2026 14:53:54 MB-L3-01Mainboard Lantai 3 L3-LUX-03 Illuminance / LUX 3 115.90 lux
13245 02/09/2026 14:53:54 MB-L5-01Mainboard Lantai 5 L5-SHT-02-RH SHT20 2 Humidity 48.00 %RH
13246 02/09/2026 14:53:54 MB-L3-01Mainboard Lantai 3 L3-AI-04 Analog Input 4 3.12 V
13247 02/09/2026 14:53:54 MB-L5-01Mainboard Lantai 5 L5-LUX-05 Illuminance / LUX 5 403.60 lux
13248 02/09/2026 14:53:54 MB-L5-01Mainboard Lantai 5 L5-LUX-04 Illuminance / LUX 4 170.60 lux
13249 02/09/2026 14:53:54 MB-L3-01Mainboard Lantai 3 L3-BGT-02 Black Globe Temperature 2 29.90 °C
13250 02/09/2026 14:53:54 MB-L3-01Mainboard Lantai 3 L3-RAD-01 Radiation 1 2.00 W/m²
13251 02/09/2026 14:53:54 MB-L5-01Mainboard Lantai 5 L5-AI-05 Analog Input 5 3.05 V
13252 02/09/2026 14:53:54 MB-L5-01Mainboard Lantai 5 L5-SHT-03-T SHT20 3 Temperature 32.20 °C
13253 02/09/2026 14:53:54 MB-L5-01Mainboard Lantai 5 L5-SHT-01-T SHT20 1 Temperature 32.30 °C
13254 02/09/2026 14:53:54 MB-L3-01Mainboard Lantai 3 L3-SHT-03-RH SHT20 3 Humidity 49.10 %RH
13255 02/09/2026 14:53:54 MB-L5-01Mainboard Lantai 5 L5-SHT-02-T SHT20 2 Temperature 32.30 °C
13256 02/09/2026 14:53:54 MB-L5-01Mainboard Lantai 5 L5-SHT-03-RH SHT20 3 Humidity 48.30 %RH
13257 02/09/2026 14:53:54 MB-L5-01Mainboard Lantai 5 L5-AI-04 Analog Input 4 3.05 V
13258 02/09/2026 14:53:54 MB-L3-01Mainboard Lantai 3 L3-ST-01 Surface Temperature 1 30.00 °C
13259 02/09/2026 14:53:52 MB-L3-01Mainboard Lantai 3 L3-AI-01 Analog Input 1 3.12 V
13260 02/09/2026 14:53:52 MB-L5-01Mainboard Lantai 5 L5-BGT-03 Black Globe Temperature 3 29.90 °C
13261 02/09/2026 14:53:52 MB-L3-01Mainboard Lantai 3 L3-HFT-01 Heat Flow Temperature 1 29.70 °C
13262 02/09/2026 14:53:52 MB-L5-01Mainboard Lantai 5 L5-LUX-03 Illuminance / LUX 3 177.80 lux
13263 02/09/2026 14:53:52 MB-L5-01Mainboard Lantai 5 L5-BGT-02 Black Globe Temperature 2 29.70 °C
13264 02/09/2026 14:53:52 MB-L5-01Mainboard Lantai 5 L5-BGT-01 Black Globe Temperature 1 29.70 °C
13265 02/09/2026 14:53:52 MB-L3-01Mainboard Lantai 3 L3-LUX-05 Illuminance / LUX 5 40.30 lux
13266 02/09/2026 14:53:52 MB-L3-01Mainboard Lantai 3 L3-AI-02 Analog Input 2 3.12 V
13267 02/09/2026 14:53:52 MB-L3-01Mainboard Lantai 3 L3-LUX-04 Illuminance / LUX 4 87.10 lux
13268 02/09/2026 14:53:52 MB-L5-01Mainboard Lantai 5 L5-HFT-02 Heat Flow Temperature 2 30.10 °C
13269 02/09/2026 14:53:52 MB-L5-01Mainboard Lantai 5 L5-SHT-01-RH SHT20 1 Humidity 48.20 %RH
13270 02/09/2026 14:53:52 MB-L3-01Mainboard Lantai 3 L3-HFT-02 Heat Flow Temperature 2 29.20 °C
13271 02/09/2026 14:53:52 MB-L3-01Mainboard Lantai 3 L3-SHT-01-T SHT20 1 Temperature 32.20 °C
13272 02/09/2026 14:53:52 MB-L5-01Mainboard Lantai 5 L5-HFT-01 Heat Flow Temperature 1 30.20 °C
13273 02/09/2026 14:53:52 MB-L5-01Mainboard Lantai 5 L5-LUX-01 Illuminance / LUX 1 256.90 lux
13274 02/09/2026 14:53:52 MB-L5-01Mainboard Lantai 5 L5-LUX-06 Illuminance / LUX 6 249.30 lux
13275 02/09/2026 14:53:52 MB-L5-01Mainboard Lantai 5 L5-ST-02 Surface Temperature 2 30.40 °C
13276 02/09/2026 14:53:52 MB-L3-01Mainboard Lantai 3 L3-LUX-02 Illuminance / LUX 2 49.70 lux
13277 02/09/2026 14:53:52 MB-L3-01Mainboard Lantai 3 L3-SHT-01-RH SHT20 1 Humidity 48.20 %RH
13278 02/09/2026 14:53:52 MB-L3-01Mainboard Lantai 3 L3-AI-03 Analog Input 3 3.12 V
13279 02/09/2026 14:53:52 MB-L5-01Mainboard Lantai 5 L5-LUX-02 Illuminance / LUX 2 232.70 lux
13280 02/09/2026 14:53:52 MB-L5-01Mainboard Lantai 5 L5-ST-01 Surface Temperature 1 30.20 °C
13281 02/09/2026 14:53:52 MB-L3-01Mainboard Lantai 3 L3-SHT-02-RH SHT20 2 Humidity 48.30 %RH
13282 02/09/2026 14:53:52 MB-L3-01Mainboard Lantai 3 L3-BGT-01 Black Globe Temperature 1 30.00 °C
13283 02/09/2026 14:53:52 MB-L5-01Mainboard Lantai 5 L5-RAD-02 Radiation 2 2.00 W/m²
13284 02/09/2026 14:53:52 MB-L3-01Mainboard Lantai 3 L3-LUX-01 Illuminance / LUX 1 27.20 lux
13285 02/09/2026 14:53:52 MB-L5-01Mainboard Lantai 5 L5-AI-06 Analog Input 6 3.05 V
13286 02/09/2026 14:53:52 MB-L3-01Mainboard Lantai 3 L3-LUX-03 Illuminance / LUX 3 121.40 lux
13287 02/09/2026 14:53:52 MB-L5-01Mainboard Lantai 5 L5-SHT-02-RH SHT20 2 Humidity 48.10 %RH
13288 02/09/2026 14:53:52 MB-L3-01Mainboard Lantai 3 L3-AI-04 Analog Input 4 3.12 V
13289 02/09/2026 14:53:52 MB-L5-01Mainboard Lantai 5 L5-LUX-05 Illuminance / LUX 5 403.60 lux
13290 02/09/2026 14:53:52 MB-L5-01Mainboard Lantai 5 L5-LUX-04 Illuminance / LUX 4 232.20 lux
13291 02/09/2026 14:53:52 MB-L3-01Mainboard Lantai 3 L3-BGT-02 Black Globe Temperature 2 29.90 °C
13292 02/09/2026 14:53:52 MB-L5-01Mainboard Lantai 5 L5-AI-05 Analog Input 5 3.05 V
13293 02/09/2026 14:53:52 MB-L5-01Mainboard Lantai 5 L5-SHT-03-T SHT20 3 Temperature 32.10 °C
13294 02/09/2026 14:53:52 MB-L5-01Mainboard Lantai 5 L5-SHT-01-T SHT20 1 Temperature 32.40 °C
13295 02/09/2026 14:53:52 MB-L3-01Mainboard Lantai 3 L3-SHT-03-RH SHT20 3 Humidity 49.00 %RH
13296 02/09/2026 14:53:52 MB-L5-01Mainboard Lantai 5 L5-SHT-02-T SHT20 2 Temperature 32.30 °C
13297 02/09/2026 14:53:52 MB-L5-01Mainboard Lantai 5 L5-SHT-03-RH SHT20 3 Humidity 48.40 %RH
13298 02/09/2026 14:53:52 MB-L5-01Mainboard Lantai 5 L5-AI-04 Analog Input 4 3.05 V
13299 02/09/2026 14:53:52 MB-L3-01Mainboard Lantai 3 L3-ST-01 Surface Temperature 1 29.90 °C
13300 02/09/2026 14:53:52 MB-L3-01Mainboard Lantai 3 L3-AI-05 Analog Input 5 3.12 V
Menampilkan maksimal 100 data per halaman